createdAt,value
2017-12-05T00:01:45.044Z,5.50
2017-12-05T00:04:12.523Z,5.40
2017-12-05T00:06:40.784Z,5.40
2017-12-05T00:09:08.264Z,5.40
2017-12-05T00:11:36.519Z,5.20
2017-12-05T00:14:04.008Z,5.20
2017-12-05T00:16:32.270Z,5.10
2017-12-05T00:18:59.771Z,5.00
2017-12-05T00:21:27.267Z,5.00
2017-12-05T00:23:54.818Z,4.90
2017-12-05T00:26:22.322Z,4.90
2017-12-05T00:28:50.554Z,4.70
2017-12-05T00:31:18.038Z,4.70
2017-12-05T00:33:46.311Z,4.70
2017-12-05T00:36:13.780Z,4.70
2017-12-05T00:38:42.050Z,4.60
2017-12-05T00:41:09.524Z,4.60
2017-12-05T00:43:37.757Z,4.50
2017-12-05T00:46:05.242Z,4.50
2017-12-05T00:48:33.504Z,4.50
2017-12-05T00:51:00.974Z,4.50
2017-12-05T00:53:29.161Z,4.40
2017-12-05T00:55:57.415Z,4.30
2017-12-05T00:58:24.886Z,4.30
2017-12-05T01:00:52.388Z,4.30
2017-12-05T01:03:19.896Z,4.30
2017-12-05T01:05:47.425Z,4.40
2017-12-05T01:08:14.908Z,4.50
2017-12-05T01:10:42.430Z,4.50
2017-12-05T01:13:09.890Z,4.50
2017-12-05T01:15:37.381Z,4.50
2017-12-05T01:18:04.950Z,4.50
2017-12-05T01:20:32.478Z,4.50
2017-12-05T01:22:59.966Z,4.50
2017-12-05T01:25:27.435Z,4.50
2017-12-05T01:27:54.912Z,4.60
2017-12-05T01:30:23.177Z,4.50
2017-12-05T01:32:52.346Z,4.60
2017-12-05T01:35:19.887Z,4.60
2017-12-05T01:37:47.381Z,4.70
2017-12-05T01:40:14.852Z,4.70
2017-12-05T01:42:43.088Z,4.70
2017-12-05T01:45:10.561Z,4.60
2017-12-05T01:47:38.039Z,4.60
2017-12-05T01:50:06.289Z,4.60
2017-12-05T01:52:33.765Z,4.60
2017-12-05T01:55:01.242Z,4.60
2017-12-05T01:57:29.488Z,4.70
2017-12-05T01:59:56.978Z,4.70
2017-12-05T02:02:25.226Z,4.70
2017-12-05T02:04:52.693Z,4.70
2017-12-05T02:07:20.175Z,4.70
2017-12-05T02:09:47.664Z,4.70
2017-12-05T02:12:15.136Z,4.70
2017-12-05T02:14:42.638Z,4.80
2017-12-05T02:17:10.120Z,4.80
2017-12-05T02:19:37.591Z,4.80
2017-12-05T02:22:05.067Z,4.80
2017-12-05T02:24:32.548Z,4.90
2017-12-05T02:27:00.043Z,4.90
2017-12-05T02:29:28.283Z,4.90
2017-12-05T02:31:55.764Z,4.90
2017-12-05T02:34:23.235Z,4.90
2017-12-05T02:36:50.933Z,4.90
2017-12-05T02:39:18.437Z,5.00
2017-12-05T02:41:45.896Z,5.00
2017-12-05T02:44:13.380Z,5.00
2017-12-05T02:46:41.619Z,5.00
2017-12-05T02:49:09.103Z,5.00
2017-12-05T02:51:37.355Z,5.00
2017-12-05T02:54:04.853Z,5.00
2017-12-05T02:56:33.086Z,5.00
2017-12-05T02:59:00.568Z,4.90
2017-12-05T03:01:28.049Z,5.00
2017-12-05T03:03:55.526Z,4.90
2017-12-05T03:06:23.003Z,4.90
2017-12-05T03:08:50.474Z,4.80
2017-12-05T03:11:18.138Z,4.80
2017-12-05T03:13:45.606Z,4.80
2017-12-05T03:16:13.120Z,4.70
2017-12-05T03:18:40.638Z,4.60
2017-12-05T03:21:08.889Z,4.50
2017-12-05T03:23:36.384Z,4.50
2017-12-05T03:26:04.618Z,4.60
2017-12-05T03:28:32.115Z,4.60
2017-12-05T03:31:00.352Z,4.60
2017-12-05T03:33:27.827Z,4.60
2017-12-05T03:35:55.333Z,4.70
2017-12-05T03:38:22.809Z,4.70
2017-12-05T03:40:50.304Z,4.80
2017-12-05T03:43:17.783Z,4.80
2017-12-05T03:45:46.014Z,4.80
2017-12-05T03:48:13.499Z,4.80
2017-12-05T03:50:41.027Z,4.90
2017-12-05T03:53:08.537Z,4.90
2017-12-05T03:55:36.764Z,4.90
2017-12-05T03:58:04.231Z,4.90
2017-12-05T04:00:31.716Z,4.90
2017-12-05T04:02:59.179Z,4.90
2017-12-05T04:05:27.414Z,4.90
2017-12-05T04:07:54.886Z,4.90
2017-12-05T04:10:22.364Z,4.80
2017-12-05T04:12:49.833Z,4.80
2017-12-05T04:15:18.054Z,4.70
2017-12-05T04:17:45.538Z,4.70
2017-12-05T04:20:13.004Z,4.70
2017-12-05T04:22:40.451Z,4.60
2017-12-05T04:25:07.935Z,4.50
2017-12-05T04:27:35.419Z,4.40
2017-12-05T04:30:02.893Z,4.40
2017-12-05T04:32:30.354Z,4.40
2017-12-05T04:34:57.838Z,4.40
2017-12-05T04:37:25.294Z,4.50
2017-12-05T04:39:52.787Z,4.50
2017-12-05T04:42:21.026Z,4.60
2017-12-05T04:44:48.550Z,4.60
2017-12-05T04:47:16.035Z,4.60
2017-12-05T04:49:43.492Z,4.70
2017-12-05T04:52:10.968Z,4.70
2017-12-05T04:54:38.452Z,4.80
2017-12-05T04:57:05.931Z,4.80
2017-12-05T04:59:34.167Z,4.80
2017-12-05T05:02:01.676Z,4.80
2017-12-05T05:04:29.131Z,4.90
2017-12-05T05:06:56.599Z,4.90
2017-12-05T05:09:24.084Z,4.90
2017-12-05T05:11:51.560Z,4.90
2017-12-05T05:14:19.031Z,4.90
2017-12-05T05:16:46.495Z,4.90
2017-12-05T05:19:14.740Z,5.00
2017-12-05T05:21:42.222Z,4.90
2017-12-05T05:24:09.725Z,5.00
2017-12-05T05:26:37.186Z,5.00
2017-12-05T05:29:04.668Z,5.00
2017-12-05T05:31:32.170Z,5.00
2017-12-05T05:34:00.889Z,5.00
2017-12-05T05:36:28.389Z,5.00
2017-12-05T05:38:55.866Z,5.00
2017-12-05T05:41:23.339Z,5.00
2017-12-05T05:43:51.601Z,5.00
2017-12-05T05:46:20.632Z,4.90
2017-12-05T05:48:48.286Z,5.00
2017-12-05T05:51:15.742Z,5.00
2017-12-05T05:53:43.274Z,5.00
2017-12-05T05:56:10.735Z,5.00
2017-12-05T05:58:38.987Z,5.00
2017-12-05T06:01:06.466Z,5.00
2017-12-05T06:03:34.750Z,5.00
2017-12-05T06:06:03.005Z,4.90
2017-12-05T06:08:30.489Z,4.90
2017-12-05T06:10:58.745Z,4.90
2017-12-05T06:13:26.218Z,4.90
2017-12-05T06:15:53.689Z,4.90
2017-12-05T06:18:21.939Z,4.80
2017-12-05T06:20:49.409Z,4.80
2017-12-05T06:23:17.679Z,4.80
2017-12-05T06:25:45.150Z,4.80
2017-12-05T06:28:13.380Z,4.80
2017-12-05T06:30:40.878Z,4.80
2017-12-05T06:33:08.396Z,4.80
2017-12-05T06:35:35.974Z,4.80
2017-12-05T06:38:03.449Z,4.80
2017-12-05T06:40:30.944Z,4.80
2017-12-05T06:43:22.633Z,4.80
2017-12-05T06:45:50.262Z,4.80
2017-12-05T06:48:17.764Z,4.80
2017-12-05T06:50:45.221Z,4.80
2017-12-05T06:53:13.482Z,4.80
2017-12-05T06:55:40.967Z,4.70
2017-12-05T06:58:08.874Z,4.80
2017-12-05T07:00:36.373Z,4.80
2017-12-05T07:03:03.846Z,4.80
2017-12-05T07:05:31.364Z,4.80
2017-12-05T07:07:58.843Z,4.80
2017-12-05T07:10:26.332Z,4.80
2017-12-05T07:12:53.843Z,4.80
2017-12-05T07:15:21.336Z,4.80
2017-12-05T07:17:50.334Z,4.80
2017-12-05T07:20:18.658Z,4.70
2017-12-05T07:22:46.122Z,4.70
2017-12-05T07:25:13.575Z,4.70
2017-12-05T07:27:41.075Z,4.70
2017-12-05T07:30:08.539Z,4.70
2017-12-05T07:32:36.017Z,4.70
2017-12-05T07:35:04.240Z,4.70
2017-12-05T07:37:31.806Z,4.70
2017-12-05T07:39:59.299Z,4.70
2017-12-05T07:42:27.535Z,4.70
2017-12-05T07:44:54.990Z,4.70
2017-12-05T07:47:22.459Z,4.70
2017-12-05T07:49:49.931Z,4.70
2017-12-05T07:52:17.644Z,4.70
2017-12-05T07:54:45.859Z,4.70
2017-12-05T07:57:13.330Z,4.70
2017-12-05T07:59:40.814Z,4.70
2017-12-05T08:02:09.066Z,4.70
2017-12-05T08:04:36.561Z,4.70
2017-12-05T08:07:04.809Z,4.80
2017-12-05T08:09:32.308Z,4.70
2017-12-05T08:11:59.777Z,4.80
2017-12-05T08:14:27.396Z,4.80
2017-12-05T08:16:54.884Z,4.80
2017-12-05T08:19:22.398Z,4.90
2017-12-05T08:21:49.882Z,4.90
2017-12-05T08:24:18.934Z,4.90
2017-12-05T08:26:46.420Z,4.90
2017-12-05T08:29:13.894Z,4.90
2017-12-05T08:31:42.153Z,5.00
2017-12-05T08:34:09.622Z,5.00
2017-12-05T08:36:37.892Z,5.00
2017-12-05T08:39:05.394Z,5.00
2017-12-05T08:41:33.082Z,5.00
2017-12-05T08:44:00.669Z,5.10
2017-12-05T08:46:28.126Z,5.10
2017-12-05T08:48:55.738Z,5.20
2017-12-05T08:51:23.205Z,5.20
2017-12-05T08:53:50.685Z,5.20
2017-12-05T08:56:18.372Z,5.20
2017-12-05T08:58:45.853Z,5.20
2017-12-05T09:01:14.085Z,5.30
2017-12-05T09:03:41.576Z,5.30
2017-12-05T09:06:09.824Z,5.40
2017-12-05T09:08:37.431Z,5.30
2017-12-05T09:11:05.683Z,5.40
2017-12-05T09:13:33.154Z,5.40
2017-12-05T09:16:01.387Z,5.50
2017-12-05T09:18:28.860Z,5.40
2017-12-05T09:20:56.343Z,5.40
2017-12-05T09:23:24.575Z,5.40
2017-12-05T09:25:52.088Z,5.40
2017-12-05T09:28:20.354Z,5.50
2017-12-05T09:30:47.840Z,5.40
2017-12-05T09:33:15.318Z,5.50
2017-12-05T09:35:42.774Z,5.50
2017-12-05T09:38:10.255Z,5.50
2017-12-05T09:40:37.714Z,5.50
2017-12-05T09:43:05.180Z,5.50
2017-12-05T09:45:32.667Z,5.60
2017-12-05T09:48:00.962Z,5.60
2017-12-05T09:50:29.188Z,5.60
2017-12-05T09:52:56.669Z,5.60
2017-12-05T09:55:24.150Z,5.70
2017-12-05T09:57:52.375Z,5.70
2017-12-05T10:00:19.875Z,5.60
2017-12-05T10:02:48.098Z,5.70
2017-12-05T10:05:15.582Z,5.70
2017-12-05T10:07:43.084Z,5.70
2017-12-05T10:10:10.562Z,5.70
2017-12-05T10:12:38.041Z,5.80
2017-12-05T10:15:05.524Z,5.80
2017-12-05T10:17:34.509Z,5.90
2017-12-05T10:20:01.983Z,5.80
2017-12-05T10:22:29.469Z,5.90
2017-12-05T10:24:58.017Z,5.90
2017-12-05T10:27:25.634Z,5.90
2017-12-05T10:29:53.106Z,6.00
2017-12-05T10:32:20.570Z,6.00
2017-12-05T10:34:48.055Z,6.00
2017-12-05T10:37:15.523Z,6.10
2017-12-05T10:39:43.003Z,6.10
2017-12-05T10:42:10.478Z,6.10
2017-12-05T10:44:37.948Z,6.20
2017-12-05T10:47:05.560Z,6.20
2017-12-05T10:49:34.213Z,6.20
2017-12-05T10:52:01.695Z,6.20
2017-12-05T10:54:29.170Z,6.30
2017-12-05T10:56:57.418Z,6.30
2017-12-05T10:59:24.893Z,6.30
2017-12-05T11:01:54.119Z,6.30
2017-12-05T11:04:22.652Z,6.40
2017-12-05T11:06:51.481Z,6.40
2017-12-05T11:09:19.070Z,6.40
2017-12-05T11:11:46.593Z,6.50
2017-12-05T11:14:14.126Z,6.40
2017-12-05T11:16:42.040Z,6.50
2017-12-05T11:19:10.608Z,6.60
2017-12-05T11:21:38.447Z,6.60
2017-12-05T11:24:06.183Z,6.70
2017-12-05T11:26:34.379Z,6.80
2017-12-05T11:29:01.845Z,6.70
2017-12-05T11:31:29.808Z,6.80
2017-12-05T11:33:57.292Z,6.80
2017-12-05T11:36:25.048Z,6.90
2017-12-05T11:38:54.134Z,6.90
2017-12-05T11:41:21.766Z,6.90
2017-12-05T11:43:49.267Z,6.90
2017-12-05T11:46:16.792Z,7.00
2017-12-05T11:48:44.366Z,7.00
2017-12-05T11:51:12.175Z,7.00
2017-12-05T11:53:40.412Z,7.00
2017-12-05T11:56:07.994Z,7.00
2017-12-05T11:58:36.252Z,7.00
2017-12-05T12:01:03.728Z,6.90
2017-12-05T12:03:31.202Z,6.90
2017-12-05T12:05:59.462Z,6.80
2017-12-05T12:08:27.098Z,6.80
2017-12-05T12:10:54.608Z,6.80
2017-12-05T12:13:22.104Z,6.70
2017-12-05T12:15:49.882Z,6.80
2017-12-05T12:18:17.358Z,6.80
2017-12-05T12:20:44.880Z,6.80
2017-12-05T12:23:12.317Z,6.80
2017-12-05T12:25:40.555Z,6.80
2017-12-05T12:28:08.044Z,6.80
2017-12-05T12:30:36.279Z,6.80
2017-12-05T12:33:03.777Z,6.70
2017-12-05T12:35:32.015Z,6.80
2017-12-05T12:37:59.492Z,6.70
2017-12-05T12:40:27.765Z,6.70
2017-12-05T12:42:55.231Z,6.70
2017-12-05T12:45:24.200Z,6.70
2017-12-05T12:47:51.708Z,6.70
2017-12-05T12:50:19.228Z,6.70
2017-12-05T12:52:46.722Z,6.70
2017-12-05T12:55:14.963Z,6.80
2017-12-05T12:57:42.441Z,6.80
2017-12-05T13:00:09.906Z,6.80
2017-12-05T13:02:37.400Z,6.80
2017-12-05T13:05:06.738Z,6.80
2017-12-05T13:07:35.094Z,6.80
2017-12-05T13:10:03.052Z,6.70
2017-12-05T13:12:30.561Z,6.70
2017-12-05T13:14:59.439Z,6.70
2017-12-05T13:17:27.530Z,6.70
2017-12-05T13:19:56.706Z,6.70
2017-12-05T13:22:27.222Z,6.60
2017-12-05T13:24:57.380Z,6.60
2017-12-05T13:27:25.723Z,6.60
2017-12-05T13:29:53.186Z,6.60
2017-12-05T13:32:20.710Z,6.50
2017-12-05T13:34:48.972Z,6.50
2017-12-05T13:37:17.197Z,6.60
2017-12-05T13:39:45.523Z,6.60
2017-12-05T13:42:13.768Z,6.50
2017-12-05T13:44:41.238Z,6.50
2017-12-05T13:47:08.723Z,6.50
2017-12-05T13:49:36.968Z,6.50
2017-12-05T13:52:04.476Z,6.50
2017-12-05T13:54:31.939Z,6.60
2017-12-05T13:56:59.422Z,6.50
2017-12-05T13:59:26.883Z,6.50
2017-12-05T14:01:54.370Z,6.50
2017-12-05T14:04:21.899Z,6.40
2017-12-05T14:06:49.364Z,6.40
2017-12-05T14:09:16.830Z,6.40
2017-12-05T14:11:44.310Z,6.40
2017-12-05T14:14:11.790Z,6.50
2017-12-05T14:16:40.042Z,6.40
2017-12-05T14:19:07.506Z,6.40
2017-12-05T14:21:35.780Z,6.40
2017-12-05T14:24:03.270Z,6.40
2017-12-05T14:26:30.747Z,6.40
2017-12-05T14:28:58.231Z,6.30
2017-12-05T14:31:25.716Z,6.30
2017-12-05T14:33:53.993Z,6.30
2017-12-05T14:36:21.451Z,6.30
2017-12-05T14:38:48.991Z,6.30
2017-12-05T14:41:16.466Z,6.30
2017-12-05T14:43:43.979Z,6.30
2017-12-05T14:46:11.503Z,6.30
2017-12-05T14:48:38.987Z,6.30
2017-12-05T14:51:06.458Z,6.20
2017-12-05T14:53:33.931Z,6.20
2017-12-05T14:56:01.411Z,6.20
2017-12-05T14:58:28.910Z,6.20
2017-12-05T15:00:56.392Z,6.30
2017-12-05T15:03:23.857Z,6.20
2017-12-05T15:05:51.343Z,6.20
2017-12-05T15:08:19.582Z,6.20
2017-12-05T15:10:47.067Z,6.20
2017-12-05T15:13:14.887Z,6.30
2017-12-05T15:15:42.371Z,6.20
2017-12-05T15:18:10.786Z,6.20
2017-12-05T15:20:38.247Z,6.20
2017-12-05T15:23:07.249Z,6.20
2017-12-05T15:25:35.608Z,6.20
2017-12-05T15:28:03.087Z,6.20
2017-12-05T15:30:30.547Z,6.20
2017-12-05T15:32:58.826Z,6.20
2017-12-05T15:35:27.087Z,6.20
2017-12-05T15:37:54.574Z,6.20
2017-12-05T15:40:22.207Z,6.20
2017-12-05T15:42:51.226Z,6.20
2017-12-05T15:45:18.726Z,6.20
2017-12-05T15:47:46.260Z,6.20
2017-12-05T15:50:13.724Z,6.20
2017-12-05T15:52:41.296Z,6.20
2017-12-05T15:55:08.764Z,6.20
2017-12-05T15:57:36.251Z,6.20
2017-12-05T16:00:03.862Z,6.20
2017-12-05T16:02:31.669Z,6.20
2017-12-05T16:04:59.199Z,6.20
2017-12-05T16:07:26.681Z,6.20
2017-12-05T16:09:54.191Z,6.20
2017-12-05T16:12:22.472Z,6.20
2017-12-05T16:14:50.764Z,6.30
2017-12-05T16:17:18.295Z,6.30
2017-12-05T16:19:46.580Z,6.20
2017-12-05T16:22:14.849Z,6.20
2017-12-05T16:24:43.281Z,6.20
2017-12-05T16:27:10.974Z,6.20
2017-12-05T16:29:40.041Z,6.30
2017-12-05T16:32:07.858Z,6.30
2017-12-05T16:34:35.434Z,6.30
2017-12-05T16:39:28.878Z,6.30
2017-12-05T16:41:56.478Z,6.30
2017-12-05T16:44:24.145Z,6.30
2017-12-05T16:49:16.361Z,6.30
2017-12-05T16:51:43.888Z,6.30
2017-12-05T16:54:11.373Z,6.30
2017-12-05T16:56:38.904Z,6.30
2017-12-05T16:59:06.403Z,6.30
2017-12-05T17:01:33.875Z,6.20
2017-12-05T17:04:02.475Z,6.30
2017-12-05T17:06:30.078Z,6.20
2017-12-05T17:08:58.430Z,6.30
2017-12-05T17:11:25.998Z,6.30
2017-12-05T17:13:53.557Z,6.30
2017-12-05T17:16:21.079Z,6.30
2017-12-05T17:18:49.359Z,6.30
2017-12-05T17:21:17.723Z,6.30
2017-12-05T17:23:46.051Z,6.30
2017-12-05T17:26:13.593Z,6.20
2017-12-05T17:28:41.094Z,6.20
2017-12-05T17:31:08.811Z,6.30
2017-12-05T17:33:36.418Z,6.30
2017-12-05T17:36:03.952Z,6.20
2017-12-05T17:38:31.461Z,6.20
2017-12-05T17:40:59.714Z,6.30
2017-12-05T17:43:27.348Z,6.30
2017-12-05T17:45:55.075Z,6.30
2017-12-05T17:48:23.358Z,6.30
2017-12-05T17:50:51.725Z,6.20
2017-12-05T17:53:19.323Z,6.20
2017-12-05T17:55:47.000Z,6.20
2017-12-05T17:58:14.580Z,6.20
2017-12-05T18:00:42.246Z,6.20
2017-12-05T18:03:09.943Z,6.20
2017-12-05T18:05:37.553Z,6.20
2017-12-05T18:08:05.035Z,6.20
2017-12-05T18:10:32.710Z,6.20
2017-12-05T18:13:00.272Z,6.20
2017-12-05T18:15:28.059Z,6.10
2017-12-05T18:17:55.648Z,6.10
2017-12-05T18:20:23.343Z,6.10
2017-12-05T18:22:50.966Z,6.10
2017-12-05T18:25:18.528Z,6.10
2017-12-05T18:27:46.020Z,6.10
2017-12-05T18:30:14.396Z,6.10
2017-12-05T18:32:41.954Z,6.10
2017-12-05T18:35:10.336Z,6.10
2017-12-05T18:37:37.948Z,6.10
2017-12-05T18:40:06.452Z,6.10
2017-12-05T18:42:34.126Z,6.00
2017-12-05T18:45:01.622Z,6.10
2017-12-05T18:47:29.099Z,6.10
2017-12-05T18:49:57.363Z,6.10
2017-12-05T18:52:24.972Z,6.00
2017-12-05T18:54:52.687Z,6.00
2017-12-05T18:57:20.163Z,6.00
2017-12-05T18:59:47.818Z,6.00
2017-12-05T19:02:15.311Z,6.00
2017-12-05T19:04:42.939Z,6.00
2017-12-05T19:07:10.513Z,6.00
2017-12-05T19:09:39.644Z,6.00
2017-12-05T19:12:07.920Z,6.00
2017-12-05T19:14:35.462Z,6.00
2017-12-05T19:17:06.033Z,6.00
2017-12-05T19:19:34.072Z,6.00
2017-12-05T19:22:01.571Z,6.00
2017-12-05T19:24:29.464Z,5.90
2017-12-05T19:26:58.110Z,5.90
2017-12-05T19:29:25.852Z,5.90
2017-12-05T19:31:53.397Z,6.00
2017-12-05T19:34:21.892Z,6.00
2017-12-05T19:36:50.142Z,6.00
2017-12-05T19:39:18.713Z,6.00
2017-12-05T19:41:46.248Z,6.00
2017-12-05T19:44:13.849Z,6.00
2017-12-05T19:46:42.578Z,6.00
2017-12-05T19:49:10.174Z,6.00
2017-12-05T19:51:38.051Z,6.00
2017-12-05T19:54:06.291Z,6.00
2017-12-05T19:56:34.249Z,6.00
2017-12-05T19:59:01.959Z,6.00
2017-12-05T20:01:29.510Z,6.00
2017-12-05T20:03:57.153Z,6.00
2017-12-05T20:06:24.705Z,6.00
2017-12-05T20:08:52.765Z,6.00
2017-12-05T20:11:20.815Z,6.00
2017-12-05T20:13:48.450Z,6.00
2017-12-05T20:16:16.987Z,6.00
2017-12-05T20:18:44.717Z,6.00
2017-12-05T20:21:12.517Z,6.00
2017-12-05T20:23:43.816Z,6.00
2017-12-05T20:26:11.581Z,6.00
2017-12-05T20:28:39.230Z,6.00
2017-12-05T20:31:06.873Z,6.00
2017-12-05T20:33:34.675Z,6.00
2017-12-05T20:36:03.310Z,6.00
2017-12-05T20:38:31.045Z,6.00
2017-12-05T20:41:00.520Z,6.00
2017-12-05T20:43:28.011Z,6.00
2017-12-05T20:45:55.530Z,6.00
2017-12-05T20:48:23.318Z,6.00
2017-12-05T20:50:51.700Z,6.00
2017-12-05T20:53:19.491Z,6.00
2017-12-05T20:55:47.424Z,6.00
2017-12-05T20:58:15.862Z,6.00
2017-12-05T21:00:43.632Z,6.00
2017-12-05T21:03:11.200Z,6.00
2017-12-05T21:05:38.694Z,6.00
2017-12-05T21:08:06.959Z,5.90
2017-12-05T21:10:34.833Z,6.00
2017-12-05T21:13:03.146Z,6.00
2017-12-05T21:15:31.404Z,6.00
2017-12-05T21:17:59.100Z,6.00
2017-12-05T21:20:26.869Z,6.00
2017-12-05T21:22:54.650Z,5.90
2017-12-05T21:25:22.403Z,5.90
2017-12-05T21:27:50.031Z,5.90
2017-12-05T21:30:17.562Z,5.90
2017-12-05T21:32:45.552Z,5.90
2017-12-05T21:35:13.129Z,5.90
2017-12-05T21:37:40.627Z,5.90
2017-12-05T21:40:08.290Z,5.90
2017-12-05T21:42:35.949Z,5.90
2017-12-05T21:45:03.607Z,6.00
2017-12-05T21:47:31.886Z,5.90
2017-12-05T21:49:59.455Z,5.90
2017-12-05T21:52:27.025Z,5.90
2017-12-05T21:54:54.520Z,5.90
2017-12-05T21:57:22.843Z,5.90
2017-12-05T21:59:50.381Z,5.90
2017-12-05T22:02:17.880Z,5.90
2017-12-05T22:04:45.394Z,5.90
2017-12-05T22:07:13.626Z,5.90
2017-12-05T22:09:41.106Z,5.90
2017-12-05T22:12:08.606Z,5.90
2017-12-05T22:14:36.064Z,5.90
2017-12-05T22:17:03.822Z,5.90
2017-12-05T22:19:31.299Z,5.90
2017-12-05T22:21:58.952Z,5.90
2017-12-05T22:24:26.932Z,5.90
2017-12-05T22:26:54.429Z,5.90
2017-12-05T22:29:23.551Z,5.80
2017-12-05T22:31:52.021Z,5.80
2017-12-05T22:34:21.134Z,5.80
2017-12-05T22:36:49.369Z,5.80
2017-12-05T22:39:16.909Z,5.80
2017-12-05T22:41:44.401Z,5.80
2017-12-05T22:44:11.970Z,5.80
2017-12-05T22:46:40.243Z,5.90
2017-12-05T22:49:08.522Z,5.80
2017-12-05T22:51:37.544Z,5.80
2017-12-05T22:54:05.043Z,5.80
2017-12-05T22:56:32.545Z,5.80
2017-12-05T22:59:00.789Z,5.80
2017-12-05T23:01:28.279Z,5.80
2017-12-05T23:03:56.540Z,5.80
2017-12-05T23:06:24.098Z,5.80
2017-12-05T23:08:51.654Z,5.80
2017-12-05T23:11:19.293Z,5.80
2017-12-05T23:13:46.782Z,5.80
2017-12-05T23:16:14.357Z,5.90
2017-12-05T23:18:42.646Z,5.80
2017-12-05T23:21:10.889Z,5.80
2017-12-05T23:23:38.371Z,5.80
2017-12-05T23:26:06.604Z,5.80
2017-12-05T23:28:34.321Z,5.90
2017-12-05T23:31:02.562Z,5.80
2017-12-05T23:33:30.048Z,5.80
2017-12-05T23:35:58.289Z,5.80
2017-12-05T23:38:25.746Z,5.80
2017-12-05T23:40:53.226Z,5.80
2017-12-05T23:43:20.792Z,5.80
2017-12-05T23:45:49.048Z,5.80
2017-12-05T23:48:16.553Z,5.80
2017-12-05T23:50:44.041Z,5.80
2017-12-05T23:53:11.538Z,5.80
2017-12-05T23:55:38.994Z,5.80
2017-12-05T23:58:08.032Z,5.70
